createdAt,value
2023-10-30T00:00:24.851Z,2.71
2023-10-30T00:02:51.639Z,2.74
2023-10-30T00:05:18.274Z,2.72
2023-10-30T00:07:44.813Z,2.61
2023-10-30T00:10:11.410Z,2.66
2023-10-30T00:12:38.065Z,2.60
2023-10-30T00:15:04.755Z,2.53
2023-10-30T00:17:31.392Z,2.65
2023-10-30T00:19:58.005Z,2.45
2023-10-30T00:22:24.553Z,2.73
2023-10-30T00:24:51.135Z,2.55
2023-10-30T00:27:17.741Z,2.49
2023-10-30T00:29:44.292Z,2.56
2023-10-30T00:32:10.793Z,2.63
2023-10-30T00:34:37.350Z,2.50
2023-10-30T00:37:03.894Z,2.66
2023-10-30T00:39:30.521Z,2.47
2023-10-30T00:41:57.179Z,2.73
2023-10-30T00:44:23.775Z,2.55
2023-10-30T00:46:50.409Z,2.46
2023-10-30T00:49:17.040Z,2.44
2023-10-30T00:51:43.634Z,2.44
2023-10-30T00:54:10.200Z,2.33
2023-10-30T00:56:36.797Z,2.54
2023-10-30T00:59:03.454Z,2.51
2023-10-30T01:01:30.083Z,2.44
2023-10-30T01:03:56.759Z,2.47
2023-10-30T01:06:23.481Z,2.32
2023-10-30T01:08:50.091Z,2.37
2023-10-30T01:11:16.677Z,2.27
2023-10-30T01:13:43.240Z,2.53
2023-10-30T01:16:09.748Z,2.62
2023-10-30T01:18:36.429Z,2.52
2023-10-30T01:21:03.030Z,2.20
2023-10-30T01:23:29.569Z,2.15
2023-10-30T01:25:56.146Z,2.07
2023-10-30T01:28:22.803Z,2.20
2023-10-30T01:30:49.525Z,2.32
2023-10-30T01:33:16.158Z,2.43
2023-10-30T01:35:42.825Z,2.27
2023-10-30T01:38:09.346Z,2.18
2023-10-30T01:40:35.913Z,2.31
2023-10-30T01:43:02.499Z,2.21
2023-10-30T01:45:29.068Z,2.10
2023-10-30T01:47:57.321Z,2.03
2023-10-30T01:50:24.173Z,2.05
2023-10-30T01:52:50.786Z,2.20
2023-10-30T01:55:17.382Z,2.07
2023-10-30T01:57:43.962Z,2.20
2023-10-30T02:00:10.521Z,2.04
2023-10-30T02:02:37.180Z,1.95
2023-10-30T02:05:03.865Z,2.11
2023-10-30T02:07:30.444Z,2.07
2023-10-30T02:09:57.019Z,2.21
2023-10-30T02:12:23.636Z,2.12
2023-10-30T02:14:50.229Z,2.00
2023-10-30T02:17:16.748Z,2.12
2023-10-30T02:19:43.372Z,1.88
2023-10-30T02:22:10.081Z,2.03
2023-10-30T02:24:36.755Z,1.88
2023-10-30T02:27:03.407Z,2.06
2023-10-30T02:29:29.949Z,2.14
2023-10-30T02:31:56.529Z,1.99
2023-10-30T02:34:23.144Z,2.14
2023-10-30T02:36:49.821Z,1.91
2023-10-30T02:39:16.611Z,1.92
2023-10-30T02:41:43.245Z,1.96
2023-10-30T02:44:09.821Z,1.84
2023-10-30T02:46:36.426Z,1.98
2023-10-30T02:49:03.032Z,2.07
2023-10-30T02:51:29.613Z,2.00
2023-10-30T02:53:56.227Z,1.87
2023-10-30T02:56:22.838Z,1.86
2023-10-30T02:58:49.383Z,2.03
2023-10-30T03:01:15.925Z,2.08
2023-10-30T03:03:42.648Z,1.89
2023-10-30T03:06:09.372Z,1.80
2023-10-30T03:08:35.943Z,1.76
2023-10-30T03:11:02.555Z,1.82
2023-10-30T03:13:29.113Z,1.94
2023-10-30T03:15:55.833Z,1.78
2023-10-30T03:18:22.513Z,1.94
2023-10-30T03:20:49.090Z,1.85
2023-10-30T03:23:15.688Z,1.94
2023-10-30T03:25:42.178Z,1.92
2023-10-30T03:28:08.762Z,1.91
2023-10-30T03:30:35.313Z,1.94
2023-10-30T03:33:01.952Z,1.96
2023-10-30T03:35:28.565Z,1.96
2023-10-30T03:37:55.125Z,1.81
2023-10-30T03:40:21.729Z,1.93
2023-10-30T03:42:48.301Z,1.89
2023-10-30T03:45:14.943Z,1.76
2023-10-30T03:47:41.633Z,1.85
2023-10-30T03:50:08.387Z,1.75
2023-10-30T03:52:34.970Z,1.64
2023-10-30T03:55:01.517Z,1.79
2023-10-30T03:57:28.257Z,1.77
2023-10-30T03:59:54.865Z,1.97
2023-10-30T04:02:21.430Z,1.60
2023-10-30T04:04:48.030Z,1.67
2023-10-30T04:07:14.575Z,1.84
2023-10-30T04:09:41.174Z,1.64
2023-10-30T04:12:07.724Z,1.85
2023-10-30T04:14:34.315Z,1.76
2023-10-30T04:17:00.873Z,1.79
2023-10-30T04:19:27.450Z,1.60
2023-10-30T04:21:54.108Z,1.82
2023-10-30T04:24:20.804Z,1.65
2023-10-30T04:26:47.403Z,1.77
2023-10-30T04:29:13.959Z,1.96
2023-10-30T04:31:40.542Z,1.88
2023-10-30T04:34:07.132Z,1.85
2023-10-30T04:36:33.755Z,1.66
2023-10-30T04:39:00.398Z,1.50
2023-10-30T04:41:27.033Z,1.74
2023-10-30T04:43:53.601Z,1.71
2023-10-30T04:46:20.258Z,1.77
2023-10-30T04:48:46.894Z,1.79
2023-10-30T04:51:13.590Z,1.90
2023-10-30T04:53:40.172Z,1.74
2023-10-30T04:56:06.781Z,1.56
2023-10-30T04:58:33.284Z,1.60
2023-10-30T05:01:00.024Z,1.69
2023-10-30T05:03:26.952Z,1.68
2023-10-30T05:05:53.782Z,1.75
2023-10-30T05:08:20.660Z,1.80
2023-10-30T05:10:47.386Z,1.67
2023-10-30T05:13:14.144Z,1.65
2023-10-30T05:15:40.730Z,1.79
2023-10-30T05:18:07.394Z,1.63
2023-10-30T05:20:33.885Z,1.81
2023-10-30T05:23:00.464Z,1.68
2023-10-30T05:25:39.530Z,1.69
2023-10-30T05:28:09.040Z,1.72
2023-10-30T05:30:35.745Z,1.62
2023-10-30T05:33:02.389Z,1.64
2023-10-30T05:35:29.006Z,1.73
2023-10-30T05:37:55.591Z,1.72
2023-10-30T05:40:22.149Z,1.73
2023-10-30T05:42:49.102Z,1.87
2023-10-30T05:45:15.983Z,1.76
2023-10-30T05:47:42.720Z,1.78
2023-10-30T05:50:09.576Z,2.11
2023-10-30T05:52:36.155Z,2.36
2023-10-30T05:55:02.705Z,2.45
2023-10-30T05:57:29.308Z,2.48
2023-10-30T05:59:55.892Z,2.64
2023-10-30T06:02:22.505Z,2.63
2023-10-30T06:04:49.031Z,2.78
2023-10-30T06:07:15.669Z,2.60
2023-10-30T06:09:42.200Z,2.54
2023-10-30T06:12:08.832Z,3.01
2023-10-30T06:14:35.402Z,2.70
2023-10-30T06:17:01.964Z,2.58
2023-10-30T06:19:28.488Z,2.58
2023-10-30T06:21:55.052Z,2.64
2023-10-30T06:24:21.625Z,2.49
2023-10-30T06:26:48.258Z,2.60
2023-10-30T06:29:14.880Z,2.48
2023-10-30T06:31:41.480Z,2.45
2023-10-30T06:34:08.161Z,2.46
2023-10-30T06:36:34.937Z,2.26
2023-10-30T06:39:01.633Z,2.41
2023-10-30T06:41:28.098Z,2.38
2023-10-30T06:43:54.710Z,2.57
2023-10-30T06:46:21.321Z,2.36
2023-10-30T06:48:47.950Z,2.22
2023-10-30T06:51:14.648Z,2.31
2023-10-30T06:53:41.221Z,2.47
2023-10-30T06:56:07.776Z,2.31
2023-10-30T06:58:34.405Z,2.49
2023-10-30T07:01:01.056Z,2.31
2023-10-30T07:03:27.773Z,2.67
2023-10-30T07:05:54.504Z,2.35
2023-10-30T07:08:21.109Z,2.31
2023-10-30T07:10:47.676Z,2.25
2023-10-30T07:13:14.246Z,2.30
2023-10-30T07:15:40.802Z,2.27
2023-10-30T07:18:07.519Z,2.48
2023-10-30T07:20:34.090Z,2.23
2023-10-30T07:23:00.703Z,2.27
2023-10-30T07:25:27.204Z,2.33
2023-10-30T07:27:53.838Z,2.20
2023-10-30T07:30:20.468Z,2.25
2023-10-30T07:32:47.157Z,2.00
2023-10-30T07:35:13.862Z,2.27
2023-10-30T07:37:40.416Z,2.07
2023-10-30T07:40:06.970Z,2.39
2023-10-30T07:42:33.606Z,2.32
2023-10-30T07:45:00.215Z,2.17
2023-10-30T07:47:42.566Z,2.21
2023-10-30T07:50:09.670Z,2.24
2023-10-30T07:52:36.232Z,2.28
2023-10-30T07:55:02.826Z,2.03
2023-10-30T07:57:29.435Z,2.13
2023-10-30T07:59:56.045Z,2.06
2023-10-30T08:02:22.631Z,2.13
2023-10-30T08:04:49.378Z,2.02
2023-10-30T08:07:16.026Z,2.17
2023-10-30T08:09:42.602Z,2.33
2023-10-30T08:12:09.226Z,1.95
2023-10-30T08:14:37.620Z,2.07
2023-10-30T08:17:04.431Z,2.14
2023-10-30T08:19:31.083Z,2.15
2023-10-30T08:21:57.720Z,2.12
2023-10-30T08:24:24.292Z,2.10
2023-10-30T08:26:50.881Z,2.18
2023-10-30T08:29:17.374Z,2.19
2023-10-30T08:31:43.964Z,2.29
2023-10-30T08:34:10.604Z,2.26
2023-10-30T08:36:38.699Z,2.44
2023-10-30T08:39:05.310Z,2.72
2023-10-30T08:41:31.916Z,2.48
2023-10-30T08:43:58.544Z,2.54
2023-10-30T08:46:25.164Z,2.59
2023-10-30T08:48:51.854Z,2.30
2023-10-30T08:51:18.492Z,2.56
2023-10-30T08:53:45.239Z,2.30
2023-10-30T08:56:11.863Z,2.47
2023-10-30T08:58:38.434Z,2.24
2023-10-30T09:01:05.008Z,2.47
2023-10-30T09:03:31.740Z,2.55
2023-10-30T09:05:58.732Z,2.45
2023-10-30T09:08:26.189Z,2.63
2023-10-30T09:10:52.831Z,2.53
2023-10-30T09:13:19.346Z,2.55
2023-10-30T09:15:46.048Z,2.71
2023-10-30T09:18:12.734Z,2.46
2023-10-30T09:20:39.261Z,2.57
2023-10-30T09:23:05.829Z,2.47
2023-10-30T09:25:32.372Z,2.56
2023-10-30T09:27:59.078Z,2.52
2023-10-30T09:30:25.804Z,2.43
2023-10-30T09:32:52.411Z,2.48
2023-10-30T09:35:18.972Z,2.54
2023-10-30T09:37:45.517Z,2.53
2023-10-30T09:40:12.063Z,2.35
2023-10-30T09:42:38.710Z,2.57
2023-10-30T09:45:05.286Z,2.38
2023-10-30T09:47:31.878Z,2.23
2023-10-30T09:49:58.511Z,2.56
2023-10-30T09:52:25.069Z,2.59
2023-10-30T09:54:51.877Z,2.51
2023-10-30T09:57:18.689Z,2.64
2023-10-30T09:59:45.291Z,2.27
2023-10-30T10:02:12.005Z,2.40
2023-10-30T10:04:38.630Z,2.25
2023-10-30T10:07:05.230Z,2.45
2023-10-30T10:09:31.840Z,2.41
2023-10-30T10:11:58.449Z,2.28
2023-10-30T10:14:25.124Z,2.38
2023-10-30T10:16:51.734Z,2.40
2023-10-30T10:19:18.358Z,2.23
2023-10-30T10:21:44.993Z,2.10
2023-10-30T10:24:11.603Z,2.30
2023-10-30T10:26:38.176Z,2.28
2023-10-30T10:29:04.812Z,2.48
2023-10-30T10:31:31.398Z,2.21
2023-10-30T10:33:58.027Z,2.37
2023-10-30T10:36:24.755Z,2.08
2023-10-30T10:38:51.351Z,2.25
2023-10-30T10:41:17.942Z,2.34
2023-10-30T10:43:44.530Z,2.08
2023-10-30T10:46:11.146Z,2.23
2023-10-30T10:48:37.751Z,2.33
2023-10-30T10:51:04.369Z,2.25
2023-10-30T10:53:30.939Z,2.48
2023-10-30T10:55:57.489Z,2.08
2023-10-30T10:58:26.788Z,2.40
2023-10-30T11:00:54.453Z,2.26
2023-10-30T11:03:21.160Z,2.32
2023-10-30T11:05:47.750Z,2.21
2023-10-30T11:08:14.427Z,2.20
2023-10-30T11:10:41.162Z,2.19
2023-10-30T11:13:07.876Z,2.32
2023-10-30T11:15:34.500Z,2.29
2023-10-30T11:18:01.100Z,2.20
2023-10-30T11:20:27.701Z,2.05
2023-10-30T11:22:54.300Z,2.39
2023-10-30T11:25:22.083Z,2.42
2023-10-30T11:27:50.016Z,2.23
2023-10-30T11:30:16.585Z,2.14
2023-10-30T11:32:43.193Z,2.12
2023-10-30T11:35:09.772Z,2.01
2023-10-30T11:37:36.351Z,2.08
2023-10-30T11:40:03.031Z,2.18
2023-10-30T11:42:29.580Z,2.21
2023-10-30T11:44:56.220Z,2.28
2023-10-30T11:47:22.859Z,2.26
2023-10-30T11:49:49.439Z,2.39
2023-10-30T11:52:16.104Z,2.19
2023-10-30T11:54:42.798Z,2.22
2023-10-30T11:57:09.373Z,2.15
2023-10-30T11:59:35.990Z,2.11
2023-10-30T12:02:02.700Z,2.02
2023-10-30T12:04:29.792Z,2.14
2023-10-30T12:06:56.738Z,2.16
2023-10-30T12:09:23.624Z,2.25
2023-10-30T12:11:50.328Z,2.11
2023-10-30T12:14:17.132Z,2.03
2023-10-30T12:16:44.110Z,2.17
2023-10-30T12:19:11.062Z,2.04
2023-10-30T12:21:37.800Z,2.21
2023-10-30T12:24:04.635Z,1.92
2023-10-30T12:26:31.395Z,2.05
2023-10-30T12:28:57.970Z,1.95
2023-10-30T12:31:24.732Z,2.14
2023-10-30T12:33:51.402Z,1.98
2023-10-30T12:36:18.051Z,2.01
2023-10-30T12:38:44.628Z,2.04
2023-10-30T12:41:11.226Z,2.10
2023-10-30T12:43:37.825Z,2.17
2023-10-30T12:46:04.427Z,2.11
2023-10-30T12:48:30.993Z,2.00
2023-10-30T12:50:57.653Z,2.07
2023-10-30T12:53:24.226Z,2.02
2023-10-30T12:55:50.781Z,2.04
2023-10-30T12:58:17.358Z,2.05
2023-10-30T13:01:10.584Z,2.02
2023-10-30T13:03:30.687Z,2.01
2023-10-30T13:05:57.439Z,2.21
2023-10-30T13:08:23.981Z,1.95
2023-10-30T13:10:50.548Z,2.03
2023-10-30T13:13:17.132Z,2.06
2023-10-30T13:15:43.764Z,2.01
2023-10-30T13:18:10.396Z,1.97
2023-10-30T13:20:36.966Z,1.94
2023-10-30T13:23:03.565Z,2.08
2023-10-30T13:25:30.146Z,1.87
2023-10-30T13:27:56.786Z,2.09
2023-10-30T13:30:23.375Z,1.83
2023-10-30T13:32:50.017Z,1.89
2023-10-30T13:35:16.624Z,2.04
2023-10-30T13:37:43.194Z,1.93
2023-10-30T13:40:09.871Z,2.01
2023-10-30T13:42:36.529Z,2.16
2023-10-30T13:45:03.156Z,2.00
2023-10-30T13:47:29.686Z,1.92
2023-10-30T13:49:56.289Z,2.13
2023-10-30T13:52:22.904Z,1.95
2023-10-30T13:54:49.480Z,1.90
2023-10-30T13:57:16.122Z,1.98
2023-10-30T13:59:42.710Z,2.03
2023-10-30T14:02:09.340Z,1.92
2023-10-30T14:04:35.957Z,1.96
2023-10-30T14:07:02.578Z,2.11
2023-10-30T14:09:29.402Z,1.81
2023-10-30T14:11:56.154Z,1.85
2023-10-30T14:14:22.758Z,1.72
2023-10-30T14:16:49.322Z,1.86
2023-10-30T14:21:43.539Z,1.84
2023-10-30T14:24:10.309Z,1.83
2023-10-30T14:26:36.857Z,2.00
2023-10-30T14:29:03.423Z,1.91
2023-10-30T14:31:30.069Z,1.91
2023-10-30T14:33:56.703Z,1.87
2023-10-30T14:36:23.308Z,1.79
2023-10-30T14:38:49.928Z,2.04
2023-10-30T14:41:16.538Z,1.92
2023-10-30T14:43:43.177Z,1.94
2023-10-30T14:46:09.830Z,2.01
2023-10-30T14:48:36.847Z,2.09
2023-10-30T14:51:03.685Z,1.83
2023-10-30T14:53:30.521Z,1.89
2023-10-30T14:55:57.411Z,1.88
2023-10-30T14:58:24.267Z,1.92
2023-10-30T15:00:51.231Z,1.83
2023-10-30T15:03:18.121Z,1.97
2023-10-30T15:05:45.103Z,1.91
2023-10-30T15:08:11.734Z,1.96
2023-10-30T15:10:38.568Z,1.79
2023-10-30T15:13:05.255Z,1.92
2023-10-30T15:15:32.065Z,1.98
2023-10-30T15:17:58.760Z,1.89
2023-10-30T15:20:25.291Z,1.98
2023-10-30T15:22:51.945Z,1.84
2023-10-30T15:25:18.647Z,1.70
2023-10-30T15:27:45.218Z,1.87
2023-10-30T15:30:11.837Z,1.85
2023-10-30T15:32:38.438Z,1.96
2023-10-30T15:35:05.167Z,1.79
2023-10-30T15:37:31.869Z,1.86
2023-10-30T15:39:58.497Z,2.07
2023-10-30T15:42:25.024Z,1.87
2023-10-30T15:44:51.623Z,1.80
2023-10-30T15:47:24.828Z,1.67
2023-10-30T15:49:52.325Z,1.84
2023-10-30T15:59:51.313Z,1.82
2023-10-30T16:02:17.918Z,1.87
2023-10-30T16:05:01.414Z,1.81
2023-10-30T16:07:29.370Z,1.81
2023-10-30T16:10:12.128Z,1.66
2023-10-30T16:12:42.778Z,1.97
2023-10-30T16:15:09.373Z,1.90
2023-10-30T16:17:36.067Z,1.82
2023-10-30T16:22:32.137Z,1.85
2023-10-30T16:24:58.760Z,1.83
2023-10-30T16:27:25.295Z,1.85
2023-10-30T16:29:51.892Z,1.74
2023-10-30T16:32:18.505Z,1.75
2023-10-30T16:34:45.129Z,1.62
2023-10-30T16:37:11.728Z,1.82
2023-10-30T16:39:38.407Z,1.94
2023-10-30T16:42:05.017Z,1.75
2023-10-30T16:44:31.623Z,1.81
2023-10-30T16:46:58.286Z,1.81
2023-10-30T16:49:24.933Z,1.95
2023-10-30T16:51:51.521Z,1.89
2023-10-30T16:54:18.244Z,1.62
2023-10-30T16:56:44.865Z,1.79
2023-10-30T16:59:11.406Z,1.84
2023-10-30T17:01:37.973Z,1.92
2023-10-30T17:04:04.543Z,1.77
2023-10-30T17:06:31.206Z,1.84
2023-10-30T17:08:57.706Z,1.91
2023-10-30T17:11:24.356Z,1.94
2023-10-30T17:13:50.954Z,1.78
2023-10-30T17:16:17.562Z,1.77
2023-10-30T17:18:44.222Z,1.90
2023-10-30T17:21:10.867Z,1.82
2023-10-30T17:23:37.469Z,1.61
2023-10-30T17:26:04.145Z,1.87
2023-10-30T17:28:30.723Z,1.91
2023-10-30T17:30:57.317Z,2.00
2023-10-30T17:33:23.867Z,1.98
2023-10-30T17:35:50.457Z,1.95
2023-10-30T17:38:17.088Z,2.04
2023-10-30T17:40:43.810Z,1.79
2023-10-30T17:43:10.429Z,1.91
2023-10-30T17:45:37.067Z,2.13
2023-10-30T17:48:03.670Z,3.87
2023-10-30T17:50:30.311Z,3.65
2023-10-30T17:52:56.916Z,4.14
2023-10-30T17:55:23.524Z,5.01
2023-10-30T17:57:50.182Z,5.77
2023-10-30T18:00:16.802Z,6.87
2023-10-30T18:02:43.395Z,7.25
2023-10-30T18:05:10.127Z,7.51
2023-10-30T18:07:36.781Z,8.80
2023-10-30T18:10:03.411Z,10.31
2023-10-30T18:12:30.078Z,11.99
2023-10-30T18:14:56.776Z,13.78
2023-10-30T18:17:23.459Z,15.62
2023-10-30T18:19:50.246Z,23.73
2023-10-30T18:22:16.960Z,25.99
2023-10-30T18:24:43.533Z,57.31
2023-10-30T18:27:10.125Z,143.93
2023-10-30T18:29:36.717Z,217.29
2023-10-30T18:32:03.222Z,262.27
2023-10-30T18:34:30.343Z,425.63
2023-10-30T18:36:56.941Z,601.19
2023-10-30T18:39:23.489Z,670.24
2023-10-30T18:41:50.024Z,587.76
2023-10-30T18:44:16.573Z,637.00
2023-10-30T18:46:43.300Z,627.33
2023-10-30T18:49:09.881Z,565.54
2023-10-30T18:51:36.514Z,551.52
2023-10-30T18:54:03.144Z,479.52
2023-10-30T18:56:29.692Z,438.24
2023-10-30T18:58:56.319Z,436.94
2023-10-30T19:01:23.035Z,451.78
2023-10-30T19:03:49.781Z,403.85
2023-10-30T19:06:16.448Z,375.04
2023-10-30T19:08:43.059Z,358.17
2023-10-30T19:11:09.686Z,322.59
2023-10-30T19:13:36.349Z,302.09
2023-10-30T19:16:03.064Z,287.30
2023-10-30T19:18:29.653Z,276.03
2023-10-30T19:20:56.381Z,262.75
2023-10-30T19:23:22.945Z,253.18
2023-10-30T19:25:49.492Z,248.65
2023-10-30T19:28:16.098Z,248.99
2023-10-30T19:30:42.748Z,233.32
2023-10-30T19:33:09.294Z,232.24
2023-10-30T19:35:35.914Z,216.98
2023-10-30T19:38:02.599Z,201.68
2023-10-30T19:40:29.231Z,190.83
2023-10-30T19:42:55.813Z,187.09
2023-10-30T19:45:22.432Z,177.13
2023-10-30T19:47:49.096Z,170.25
2023-10-30T19:50:15.743Z,161.70
2023-10-30T19:52:42.417Z,156.24
2023-10-30T19:55:09.070Z,149.78
2023-10-30T19:57:35.862Z,145.51
2023-10-30T20:00:02.886Z,136.93
2023-10-30T20:02:29.822Z,131.24
2023-10-30T20:04:56.717Z,127.28
2023-10-30T20:07:23.452Z,122.56
2023-10-30T20:09:55.699Z,116.81
2023-10-30T20:12:30.992Z,112.00
2023-10-30T20:14:57.569Z,111.76
2023-10-30T20:17:24.299Z,106.17
2023-10-30T20:19:51.081Z,104.76
2023-10-30T20:22:18.272Z,97.26
2023-10-30T20:24:44.886Z,89.77
2023-10-30T20:27:11.624Z,84.87
2023-10-30T20:29:38.468Z,82.98
2023-10-30T20:32:05.424Z,80.30
2023-10-30T20:34:32.371Z,79.29
2023-10-30T20:36:59.288Z,75.50
2023-10-30T20:39:26.211Z,71.81
2023-10-30T20:41:52.919Z,67.97
2023-10-30T20:44:19.635Z,66.92
2023-10-30T20:46:46.471Z,64.17
2023-10-30T20:49:13.342Z,61.89
2023-10-30T20:51:40.200Z,59.35
2023-10-30T20:54:07.143Z,56.78
2023-10-30T20:56:34.107Z,54.61
2023-10-30T20:59:01.031Z,52.21
2023-10-30T21:01:27.729Z,50.68
2023-10-30T21:03:54.429Z,49.24
2023-10-30T21:06:21.077Z,48.67
2023-10-30T21:08:47.631Z,45.75
2023-10-30T21:11:14.234Z,44.35
2023-10-30T21:13:40.846Z,41.92
2023-10-30T21:16:07.558Z,39.77
2023-10-30T21:18:34.194Z,38.36
2023-10-30T21:21:00.840Z,37.52
2023-10-30T21:23:27.404Z,36.22
2023-10-30T21:25:54.013Z,34.51
2023-10-30T21:28:20.643Z,33.05
2023-10-30T21:30:47.275Z,32.72
2023-10-30T21:33:13.925Z,32.45
2023-10-30T21:35:40.555Z,32.82
2023-10-30T21:38:07.118Z,32.22
2023-10-30T21:40:33.769Z,30.66
2023-10-30T21:43:00.433Z,29.95
2023-10-30T21:45:27.044Z,28.79
2023-10-30T21:47:53.681Z,27.05
2023-10-30T21:50:20.245Z,27.01
2023-10-30T21:52:46.980Z,25.62
2023-10-30T21:55:13.622Z,24.66
2023-10-30T21:57:40.279Z,23.44
2023-10-30T22:00:06.868Z,22.99
2023-10-30T22:02:33.801Z,22.34
2023-10-30T22:05:00.671Z,22.03
2023-10-30T22:07:27.286Z,21.74
2023-10-30T22:09:53.836Z,20.28
2023-10-30T22:12:20.369Z,19.30
2023-10-30T22:14:47.089Z,18.29
2023-10-30T22:17:14.124Z,18.12
2023-10-30T22:19:41.998Z,17.31
2023-10-30T22:22:08.909Z,17.17
2023-10-30T22:24:35.446Z,16.52
2023-10-30T22:27:02.007Z,15.26
2023-10-30T22:29:28.569Z,14.85
2023-10-30T22:31:55.175Z,14.64
2023-10-30T22:34:21.755Z,14.53
2023-10-30T22:36:48.431Z,13.55
2023-10-30T22:39:15.034Z,12.49
2023-10-30T22:41:41.641Z,12.25
2023-10-30T22:44:08.283Z,12.26
2023-10-30T22:46:34.955Z,11.68
2023-10-30T22:49:01.561Z,11.01
2023-10-30T22:51:28.172Z,10.75
2023-10-30T22:53:54.764Z,10.65
2023-10-30T22:56:21.422Z,10.22
2023-10-30T22:58:48.063Z,9.78
2023-10-30T23:01:14.727Z,9.09
2023-10-30T23:03:41.391Z,8.82
2023-10-30T23:06:08.074Z,8.72
2023-10-30T23:08:34.748Z,8.76
2023-10-30T23:11:01.498Z,8.08
2023-10-30T23:13:28.113Z,8.16
2023-10-30T23:15:54.611Z,8.17
2023-10-30T23:18:21.236Z,8.70
2023-10-30T23:20:47.855Z,7.84
2023-10-30T23:23:14.449Z,7.46
2023-10-30T23:25:41.138Z,6.60
2023-10-30T23:28:07.784Z,6.50
2023-10-30T23:30:34.400Z,6.66
2023-10-30T23:33:00.926Z,5.94
2023-10-30T23:35:27.549Z,5.63
2023-10-30T23:37:59.515Z,5.37
2023-10-30T23:40:29.191Z,5.67
2023-10-30T23:42:55.833Z,5.16
2023-10-30T23:45:22.407Z,4.83
2023-10-30T23:47:49.176Z,5.08
2023-10-30T23:50:15.842Z,4.58
2023-10-30T23:52:42.448Z,4.26
2023-10-30T23:55:09.075Z,4.56
2023-10-30T23:57:35.643Z,4.19
